sensor_id;sensor_type;location;lat;lon;timestamp;P1;durP1;ratioP1;P2;durP2;ratioP2
56720;SDS011;53183;47.412;18.884;2022-12-11T00:02:13;19.87;;;9.00;;
56720;SDS011;53183;47.412;18.884;2022-12-11T00:04:41;16.65;;;9.43;;
56720;SDS011;53183;47.412;18.884;2022-12-11T00:07:08;19.23;;;9.25;;
56720;SDS011;53183;47.412;18.884;2022-12-11T00:09:35;21.20;;;9.23;;
56720;SDS011;53183;47.412;18.884;2022-12-11T00:12:03;18.27;;;9.05;;
56720;SDS011;53183;47.412;18.884;2022-12-11T00:14:30;20.50;;;9.55;;
56720;SDS011;53183;47.412;18.884;2022-12-11T00:16:58;19.17;;;9.15;;
56720;SDS011;53183;47.412;18.884;2022-12-11T00:19:25;18.55;;;9.38;;
56720;SDS011;53183;47.412;18.884;2022-12-11T00:21:52;19.15;;;9.18;;
56720;SDS011;53183;47.412;18.884;2022-12-11T00:24:19;24.45;;;11.75;;
56720;SDS011;53183;47.412;18.884;2022-12-11T00:26:46;24.45;;;10.27;;
56720;SDS011;53183;47.412;18.884;2022-12-11T00:29:13;18.58;;;9.85;;
56720;SDS011;53183;47.412;18.884;2022-12-11T00:31:40;26.80;;;10.77;;
56720;SDS011;53183;47.412;18.884;2022-12-11T00:34:08;19.75;;;8.80;;
56720;SDS011;53183;47.412;18.884;2022-12-11T00:36:36;18.92;;;9.40;;
56720;SDS011;53183;47.412;18.884;2022-12-11T00:39:03;20.65;;;9.23;;
56720;SDS011;53183;47.412;18.884;2022-12-11T00:41:31;18.42;;;9.43;;
56720;SDS011;53183;47.412;18.884;2022-12-11T00:43:58;21.20;;;9.38;;
56720;SDS011;53183;47.412;18.884;2022-12-11T00:46:25;24.50;;;11.32;;
56720;SDS011;53183;47.412;18.884;2022-12-11T00:48:52;20.00;;;10.20;;
56720;SDS011;53183;47.412;18.884;2022-12-11T00:51:19;17.77;;;9.00;;
56720;SDS011;53183;47.412;18.884;2022-12-11T00:53:46;18.70;;;10.07;;
56720;SDS011;53183;47.412;18.884;2022-12-11T00:56:16;20.02;;;9.07;;
56720;SDS011;53183;47.412;18.884;2022-12-11T00:58:46;15.93;;;8.23;;
56720;SDS011;53183;47.412;18.884;2022-12-11T01:01:15;21.33;;;8.85;;
56720;SDS011;53183;47.412;18.884;2022-12-11T01:03:44;16.55;;;8.18;;
56720;SDS011;53183;47.412;18.884;2022-12-11T01:06:16;13.88;;;7.53;;
56720;SDS011;53183;47.412;18.884;2022-12-11T01:08:45;18.50;;;8.65;;
56720;SDS011;53183;47.412;18.884;2022-12-11T01:11:14;17.62;;;8.10;;
56720;SDS011;53183;47.412;18.884;2022-12-11T01:13:42;17.67;;;7.35;;
56720;SDS011;53183;47.412;18.884;2022-12-11T01:16:11;17.42;;;8.95;;
56720;SDS011;53183;47.412;18.884;2022-12-11T01:18:39;14.68;;;7.47;;
56720;SDS011;53183;47.412;18.884;2022-12-11T01:21:08;14.50;;;7.75;;
56720;SDS011;53183;47.412;18.884;2022-12-11T01:23:37;16.20;;;7.22;;
56720;SDS011;53183;47.412;18.884;2022-12-11T01:26:09;15.52;;;7.55;;
56720;SDS011;53183;47.412;18.884;2022-12-11T01:28:41;16.50;;;7.78;;
56720;SDS011;53183;47.412;18.884;2022-12-11T01:31:10;15.77;;;6.90;;
56720;SDS011;53183;47.412;18.884;2022-12-11T01:33:39;15.10;;;7.68;;
56720;SDS011;53183;47.412;18.884;2022-12-11T01:36:11;13.00;;;6.20;;
56720;SDS011;53183;47.412;18.884;2022-12-11T01:38:44;16.10;;;7.93;;
56720;SDS011;53183;47.412;18.884;2022-12-11T01:41:12;12.90;;;7.32;;
56720;SDS011;53183;47.412;18.884;2022-12-11T01:46:28;14.55;;;7.10;;
56720;SDS011;53183;47.412;18.884;2022-12-11T01:48:57;12.13;;;6.97;;
56720;SDS011;53183;47.412;18.884;2022-12-11T01:51:26;11.32;;;6.53;;
56720;SDS011;53183;47.412;18.884;2022-12-11T01:53:58;10.48;;;5.72;;
56720;SDS011;53183;47.412;18.884;2022-12-11T01:56:28;12.50;;;6.50;;
56720;SDS011;53183;47.412;18.884;2022-12-11T01:58:59;11.40;;;5.90;;
56720;SDS011;53183;47.412;18.884;2022-12-11T02:01:38;13.38;;;7.10;;
56720;SDS011;53183;47.412;18.884;2022-12-11T02:04:09;11.98;;;6.22;;
56720;SDS011;53183;47.412;18.884;2022-12-11T02:06:39;9.38;;;5.20;;
56720;SDS011;53183;47.412;18.884;2022-12-11T02:09:09;11.95;;;5.25;;
56720;SDS011;53183;47.412;18.884;2022-12-11T02:11:43;14.13;;;5.25;;
56720;SDS011;53183;47.412;18.884;2022-12-11T02:14:45;7.80;;;4.50;;
56720;SDS011;53183;47.412;18.884;2022-12-11T02:17:18;11.00;;;5.00;;
56720;SDS011;53183;47.412;18.884;2022-12-11T02:22:47;9.13;;;4.43;;
56720;SDS011;53183;47.412;18.884;2022-12-11T02:28:51;7.57;;;4.45;;
56720;SDS011;53183;47.412;18.884;2022-12-11T02:32:24;10.30;;;5.30;;
56720;SDS011;53183;47.412;18.884;2022-12-11T02:34:31;9.63;;;4.45;;
56720;SDS011;53183;47.412;18.884;2022-12-11T02:37:15;9.48;;;4.78;;
56720;SDS011;53183;47.412;18.884;2022-12-11T02:39:47;11.32;;;5.85;;
56720;SDS011;53183;47.412;18.884;2022-12-11T02:42:18;11.38;;;5.65;;
56720;SDS011;53183;47.412;18.884;2022-12-11T02:44:47;7.53;;;4.53;;
56720;SDS011;53183;47.412;18.884;2022-12-11T02:47:16;10.50;;;5.32;;
56720;SDS011;53183;47.412;18.884;2022-12-11T02:49:47;9.45;;;5.97;;
56720;SDS011;53183;47.412;18.884;2022-12-11T02:52:17;12.35;;;5.95;;
56720;SDS011;53183;47.412;18.884;2022-12-11T02:54:48;13.13;;;5.32;;
56720;SDS011;53183;47.412;18.884;2022-12-11T03:00:11;13.77;;;6.95;;
56720;SDS011;53183;47.412;18.884;2022-12-11T03:02:39;13.30;;;5.25;;
56720;SDS011;53183;47.412;18.884;2022-12-11T03:05:07;15.48;;;6.70;;
56720;SDS011;53183;47.412;18.884;2022-12-11T03:07:37;14.50;;;6.82;;
56720;SDS011;53183;47.412;18.884;2022-12-11T03:10:08;13.05;;;6.03;;
56720;SDS011;53183;47.412;18.884;2022-12-11T03:12:38;13.35;;;6.95;;
56720;SDS011;53183;47.412;18.884;2022-12-11T03:15:08;15.50;;;6.50;;
56720;SDS011;53183;47.412;18.884;2022-12-11T03:17:50;9.70;;;5.00;;
56720;SDS011;53183;47.412;18.884;2022-12-11T03:20:38;16.30;;;7.25;;
56720;SDS011;53183;47.412;18.884;2022-12-11T03:26:09;11.10;;;5.95;;
56720;SDS011;53183;47.412;18.884;2022-12-11T03:28:58;15.10;;;6.97;;
56720;SDS011;53183;47.412;18.884;2022-12-11T03:31:30;12.65;;;4.68;;
56720;SDS011;53183;47.412;18.884;2022-12-11T03:34:19;12.13;;;6.05;;
56720;SDS011;53183;47.412;18.884;2022-12-11T03:36:51;11.10;;;5.00;;
56720;SDS011;53183;47.412;18.884;2022-12-11T03:39:23;14.57;;;5.50;;
56720;SDS011;53183;47.412;18.884;2022-12-11T03:41:54;10.05;;;5.20;;
56720;SDS011;53183;47.412;18.884;2022-12-11T03:44:22;14.00;;;6.30;;
56720;SDS011;53183;47.412;18.884;2022-12-11T03:46:50;12.05;;;6.32;;
56720;SDS011;53183;47.412;18.884;2022-12-11T03:49:21;12.98;;;6.80;;
56720;SDS011;53183;47.412;18.884;2022-12-11T03:51:53;14.48;;;6.12;;
56720;SDS011;53183;47.412;18.884;2022-12-11T03:54:22;15.68;;;5.57;;
56720;SDS011;53183;47.412;18.884;2022-12-11T03:56:51;12.57;;;6.93;;
56720;SDS011;53183;47.412;18.884;2022-12-11T03:59:21;10.38;;;5.53;;
56720;SDS011;53183;47.412;18.884;2022-12-11T04:01:49;15.43;;;6.95;;
56720;SDS011;53183;47.412;18.884;2022-12-11T04:04:16;12.73;;;5.72;;
56720;SDS011;53183;47.412;18.884;2022-12-11T04:06:44;9.70;;;5.28;;
56720;SDS011;53183;47.412;18.884;2022-12-11T04:09:11;13.65;;;6.00;;
56720;SDS011;53183;47.412;18.884;2022-12-11T04:11:38;13.30;;;5.70;;
56720;SDS011;53183;47.412;18.884;2022-12-11T04:14:09;12.27;;;5.65;;
56720;SDS011;53183;47.412;18.884;2022-12-11T04:16:58;18.55;;;5.70;;
56720;SDS011;53183;47.412;18.884;2022-12-11T04:19:26;12.20;;;5.47;;
56720;SDS011;53183;47.412;18.884;2022-12-11T04:22:13;15.10;;;6.10;;
56720;SDS011;53183;47.412;18.884;2022-12-11T04:25:01;13.02;;;6.15;;
56720;SDS011;53183;47.412;18.884;2022-12-11T04:27:30;10.85;;;5.68;;
56720;SDS011;53183;47.412;18.884;2022-12-11T04:30:20;12.35;;;6.75;;
56720;SDS011;53183;47.412;18.884;2022-12-11T04:32:49;11.85;;;7.05;;
56720;SDS011;53183;47.412;18.884;2022-12-11T04:35:19;14.45;;;7.03;;
56720;SDS011;53183;47.412;18.884;2022-12-11T04:37:47;15.27;;;7.07;;
56720;SDS011;53183;47.412;18.884;2022-12-11T04:40:15;16.30;;;7.43;;
56720;SDS011;53183;47.412;18.884;2022-12-11T04:42:44;16.45;;;7.25;;
56720;SDS011;53183;47.412;18.884;2022-12-11T04:45:11;15.65;;;8.38;;
56720;SDS011;53183;47.412;18.884;2022-12-11T04:47:40;15.23;;;8.07;;
56720;SDS011;53183;47.412;18.884;2022-12-11T04:50:11;16.37;;;7.53;;
56720;SDS011;53183;47.412;18.884;2022-12-11T04:52:40;14.73;;;7.32;;
56720;SDS011;53183;47.412;18.884;2022-12-11T04:55:08;14.70;;;6.75;;
56720;SDS011;53183;47.412;18.884;2022-12-11T04:57:36;15.90;;;6.87;;
56720;SDS011;53183;47.412;18.884;2022-12-11T05:00:05;11.40;;;6.93;;
56720;SDS011;53183;47.412;18.884;2022-12-11T05:02:34;15.95;;;6.97;;
56720;SDS011;53183;47.412;18.884;2022-12-11T05:05:04;13.48;;;6.93;;
56720;SDS011;53183;47.412;18.884;2022-12-11T05:07:35;10.95;;;6.37;;
56720;SDS011;53183;47.412;18.884;2022-12-11T05:10:03;12.85;;;6.85;;
56720;SDS011;53183;47.412;18.884;2022-12-11T05:12:31;12.05;;;5.97;;
56720;SDS011;53183;47.412;18.884;2022-12-11T05:14:58;9.13;;;5.68;;
56720;SDS011;53183;47.412;18.884;2022-12-11T05:17:26;10.52;;;5.75;;
56720;SDS011;53183;47.412;18.884;2022-12-11T05:19:53;15.23;;;7.15;;
56720;SDS011;53183;47.412;18.884;2022-12-11T05:22:20;14.18;;;6.75;;
56720;SDS011;53183;47.412;18.884;2022-12-11T05:24:47;12.82;;;7.25;;
56720;SDS011;53183;47.412;18.884;2022-12-11T05:27:14;13.82;;;6.40;;
56720;SDS011;53183;47.412;18.884;2022-12-11T05:29:41;11.90;;;6.10;;
56720;SDS011;53183;47.412;18.884;2022-12-11T05:32:08;11.05;;;6.65;;
56720;SDS011;53183;47.412;18.884;2022-12-11T05:34:36;14.23;;;6.35;;
56720;SDS011;53183;47.412;18.884;2022-12-11T05:37:03;9.18;;;4.90;;
56720;SDS011;53183;47.412;18.884;2022-12-11T05:39:30;10.52;;;6.03;;
56720;SDS011;53183;47.412;18.884;2022-12-11T05:41:57;10.75;;;5.97;;
56720;SDS011;53183;47.412;18.884;2022-12-11T05:44:24;13.85;;;6.25;;
56720;SDS011;53183;47.412;18.884;2022-12-11T05:46:52;10.90;;;5.82;;
56720;SDS011;53183;47.412;18.884;2022-12-11T05:49:20;13.60;;;5.75;;
56720;SDS011;53183;47.412;18.884;2022-12-11T05:51:54;13.60;;;5.65;;
56720;SDS011;53183;47.412;18.884;2022-12-11T05:54:21;11.00;;;4.90;;
56720;SDS011;53183;47.412;18.884;2022-12-11T05:56:49;10.25;;;5.45;;
56720;SDS011;53183;47.412;18.884;2022-12-11T05:59:16;9.98;;;5.62;;
56720;SDS011;53183;47.412;18.884;2022-12-11T06:01:45;11.90;;;5.60;;
56720;SDS011;53183;47.412;18.884;2022-12-11T06:04:13;9.40;;;5.15;;
56720;SDS011;53183;47.412;18.884;2022-12-11T06:06:40;7.07;;;4.07;;
56720;SDS011;53183;47.412;18.884;2022-12-11T06:09:12;8.93;;;5.18;;
56720;SDS011;53183;47.412;18.884;2022-12-11T06:11:41;12.70;;;5.40;;
56720;SDS011;53183;47.412;18.884;2022-12-11T06:14:09;12.30;;;5.28;;
56720;SDS011;53183;47.412;18.884;2022-12-11T06:16:37;10.70;;;5.22;;
56720;SDS011;53183;47.412;18.884;2022-12-11T06:19:04;11.60;;;6.28;;
56720;SDS011;53183;47.412;18.884;2022-12-11T06:21:31;11.82;;;6.18;;
56720;SDS011;53183;47.412;18.884;2022-12-11T06:24:00;12.63;;;4.75;;
56720;SDS011;53183;47.412;18.884;2022-12-11T06:26:28;11.35;;;6.30;;
56720;SDS011;53183;47.412;18.884;2022-12-11T06:28:56;12.77;;;6.40;;
56720;SDS011;53183;47.412;18.884;2022-12-11T06:31:24;10.25;;;5.18;;
56720;SDS011;53183;47.412;18.884;2022-12-11T06:33:51;13.57;;;6.28;;
56720;SDS011;53183;47.412;18.884;2022-12-11T06:36:19;11.70;;;5.93;;
56720;SDS011;53183;47.412;18.884;2022-12-11T06:38:47;14.68;;;6.47;;
56720;SDS011;53183;47.412;18.884;2022-12-11T06:41:15;10.65;;;6.62;;
56720;SDS011;53183;47.412;18.884;2022-12-11T06:43:43;10.70;;;6.47;;
56720;SDS011;53183;47.412;18.884;2022-12-11T06:46:11;12.90;;;6.72;;
56720;SDS011;53183;47.412;18.884;2022-12-11T06:48:44;15.40;;;6.30;;
56720;SDS011;53183;47.412;18.884;2022-12-11T06:51:13;12.55;;;6.47;;
56720;SDS011;53183;47.412;18.884;2022-12-11T06:53:42;12.37;;;6.50;;
56720;SDS011;53183;47.412;18.884;2022-12-11T06:56:11;12.98;;;6.75;;
56720;SDS011;53183;47.412;18.884;2022-12-11T06:58:40;11.82;;;6.93;;
56720;SDS011;53183;47.412;18.884;2022-12-11T07:01:26;10.73;;;5.37;;
56720;SDS011;53183;47.412;18.884;2022-12-11T07:03:58;11.68;;;5.65;;
56720;SDS011;53183;47.412;18.884;2022-12-11T07:06:26;11.25;;;5.70;;
56720;SDS011;53183;47.412;18.884;2022-12-11T07:08:54;10.80;;;4.65;;
56720;SDS011;53183;47.412;18.884;2022-12-11T07:11:22;12.02;;;5.37;;
56720;SDS011;53183;47.412;18.884;2022-12-11T07:13:49;9.43;;;5.03;;
56720;SDS011;53183;47.412;18.884;2022-12-11T07:16:17;8.45;;;5.28;;
56720;SDS011;53183;47.412;18.884;2022-12-11T07:18:46;8.55;;;5.05;;
56720;SDS011;53183;47.412;18.884;2022-12-11T07:21:14;15.00;;;6.05;;
56720;SDS011;53183;47.412;18.884;2022-12-11T07:23:42;10.00;;;5.32;;
56720;SDS011;53183;47.412;18.884;2022-12-11T07:26:13;15.23;;;5.07;;
56720;SDS011;53183;47.412;18.884;2022-12-11T07:28:42;7.90;;;4.30;;
56720;SDS011;53183;47.412;18.884;2022-12-11T07:31:13;8.18;;;4.32;;
56720;SDS011;53183;47.412;18.884;2022-12-11T07:33:43;9.00;;;4.12;;
56720;SDS011;53183;47.412;18.884;2022-12-11T07:36:11;9.38;;;3.87;;
56720;SDS011;53183;47.412;18.884;2022-12-11T07:38:39;6.78;;;3.92;;
56720;SDS011;53183;47.412;18.884;2022-12-11T07:41:09;10.10;;;3.90;;
56720;SDS011;53183;47.412;18.884;2022-12-11T07:43:37;7.75;;;3.92;;
56720;SDS011;53183;47.412;18.884;2022-12-11T07:46:06;8.40;;;4.18;;
56720;SDS011;53183;47.412;18.884;2022-12-11T07:48:36;8.50;;;4.30;;
56720;SDS011;53183;47.412;18.884;2022-12-11T07:51:11;6.87;;;3.37;;
56720;SDS011;53183;47.412;18.884;2022-12-11T07:53:44;7.28;;;3.50;;
56720;SDS011;53183;47.412;18.884;2022-12-11T07:56:13;8.45;;;3.78;;
56720;SDS011;53183;47.412;18.884;2022-12-11T07:58:41;8.45;;;3.72;;
56720;SDS011;53183;47.412;18.884;2022-12-11T08:01:15;10.15;;;3.30;;
56720;SDS011;53183;47.412;18.884;2022-12-11T08:03:45;4.57;;;2.50;;
56720;SDS011;53183;47.412;18.884;2022-12-11T08:06:12;6.70;;;3.30;;
56720;SDS011;53183;47.412;18.884;2022-12-11T08:08:39;5.75;;;3.33;;
56720;SDS011;53183;47.412;18.884;2022-12-11T08:11:09;5.32;;;3.12;;
56720;SDS011;53183;47.412;18.884;2022-12-11T08:13:38;6.93;;;3.25;;
56720;SDS011;53183;47.412;18.884;2022-12-11T08:16:07;7.15;;;3.55;;
56720;SDS011;53183;47.412;18.884;2022-12-11T08:18:36;5.28;;;1.67;;
56720;SDS011;53183;47.412;18.884;2022-12-11T08:21:14;5.97;;;3.33;;
56720;SDS011;53183;47.412;18.884;2022-12-11T08:23:47;4.82;;;2.28;;
56720;SDS011;53183;47.412;18.884;2022-12-11T08:26:16;2.92;;;2.53;;
56720;SDS011;53183;47.412;18.884;2022-12-11T08:28:44;7.07;;;3.45;;
56720;SDS011;53183;47.412;18.884;2022-12-11T08:31:13;3.92;;;2.65;;
56720;SDS011;53183;47.412;18.884;2022-12-11T08:33:41;5.15;;;2.87;;
56720;SDS011;53183;47.412;18.884;2022-12-11T08:36:11;5.32;;;2.95;;
56720;SDS011;53183;47.412;18.884;2022-12-11T08:38:40;4.93;;;2.35;;
56720;SDS011;53183;47.412;18.884;2022-12-11T08:41:11;3.97;;;2.30;;
56720;SDS011;53183;47.412;18.884;2022-12-11T08:43:40;3.50;;;2.20;;
56720;SDS011;53183;47.412;18.884;2022-12-11T08:46:10;5.87;;;2.62;;
56720;SDS011;53183;47.412;18.884;2022-12-11T08:48:38;6.72;;;2.95;;
56720;SDS011;53183;47.412;18.884;2022-12-11T08:51:09;12.95;;;3.30;;
56720;SDS011;53183;47.412;18.884;2022-12-11T08:53:38;5.25;;;3.00;;
56720;SDS011;53183;47.412;18.884;2022-12-11T08:56:10;3.72;;;2.60;;
56720;SDS011;53183;47.412;18.884;2022-12-11T08:58:39;5.97;;;2.97;;
56720;SDS011;53183;47.412;18.884;2022-12-11T09:01:10;5.78;;;3.10;;
56720;SDS011;53183;47.412;18.884;2022-12-11T09:03:39;12.05;;;2.50;;
56720;SDS011;53183;47.412;18.884;2022-12-11T09:06:07;6.45;;;2.83;;
56720;SDS011;53183;47.412;18.884;2022-12-11T09:08:36;7.22;;;3.15;;
56720;SDS011;53183;47.412;18.884;2022-12-11T09:11:05;6.90;;;3.33;;
56720;SDS011;53183;47.412;18.884;2022-12-11T09:13:34;5.22;;;3.25;;
56720;SDS011;53183;47.412;18.884;2022-12-11T09:16:06;5.57;;;2.95;;
56720;SDS011;53183;47.412;18.884;2022-12-11T09:18:36;5.15;;;3.00;;
56720;SDS011;53183;47.412;18.884;2022-12-11T09:21:04;5.12;;;2.65;;
56720;SDS011;53183;47.412;18.884;2022-12-11T09:23:36;4.43;;;2.53;;
56720;SDS011;53183;47.412;18.884;2022-12-11T09:26:04;6.95;;;3.05;;
56720;SDS011;53183;47.412;18.884;2022-12-11T09:28:32;6.45;;;2.67;;
56720;SDS011;53183;47.412;18.884;2022-12-11T09:31:00;4.15;;;2.25;;
56720;SDS011;53183;47.412;18.884;2022-12-11T09:33:27;4.32;;;2.85;;
56720;SDS011;53183;47.412;18.884;2022-12-11T09:36:01;6.40;;;3.15;;
56720;SDS011;53183;47.412;18.884;2022-12-11T09:38:30;7.35;;;2.30;;
56720;SDS011;53183;47.412;18.884;2022-12-11T09:40:58;7.20;;;2.75;;
56720;SDS011;53183;47.412;18.884;2022-12-11T09:43:41;4.53;;;2.53;;
56720;SDS011;53183;47.412;18.884;2022-12-11T09:46:14;7.62;;;3.45;;
56720;SDS011;53183;47.412;18.884;2022-12-11T09:48:46;9.88;;;3.85;;
56720;SDS011;53183;47.412;18.884;2022-12-11T09:51:38;6.82;;;3.28;;
56720;SDS011;53183;47.412;18.884;2022-12-11T09:54:05;10.63;;;3.05;;
56720;SDS011;53183;47.412;18.884;2022-12-11T09:56:33;5.40;;;2.95;;
56720;SDS011;53183;47.412;18.884;2022-12-11T09:59:07;6.12;;;2.80;;
56720;SDS011;53183;47.412;18.884;2022-12-11T10:02:03;6.70;;;3.45;;
56720;SDS011;53183;47.412;18.884;2022-12-11T10:07:36;10.73;;;3.08;;
56720;SDS011;53183;47.412;18.884;2022-12-11T10:18:25;7.37;;;3.53;;
56720;SDS011;53183;47.412;18.884;2022-12-11T10:20:54;3.25;;;2.17;;
56720;SDS011;53183;47.412;18.884;2022-12-11T10:23:33;8.02;;;3.15;;
56720;SDS011;53183;47.412;18.884;2022-12-11T10:28:33;4.20;;;2.47;;
56720;SDS011;53183;47.412;18.884;2022-12-11T10:36:19;4.25;;;2.40;;
56720;SDS011;53183;47.412;18.884;2022-12-11T10:38:56;6.55;;;3.10;;
56720;SDS011;53183;47.412;18.884;2022-12-11T10:41:29;6.15;;;3.28;;
56720;SDS011;53183;47.412;18.884;2022-12-11T10:44:25;6.07;;;2.55;;
56720;SDS011;53183;47.412;18.884;2022-12-11T10:47:11;7.22;;;2.92;;
56720;SDS011;53183;47.412;18.884;2022-12-11T10:49:50;6.12;;;3.53;;
56720;SDS011;53183;47.412;18.884;2022-12-11T10:52:25;7.07;;;3.00;;
56720;SDS011;53183;47.412;18.884;2022-12-11T10:55:01;4.70;;;2.47;;
56720;SDS011;53183;47.412;18.884;2022-12-11T10:57:36;5.35;;;2.92;;
56720;SDS011;53183;47.412;18.884;2022-12-11T11:00:05;5.57;;;2.50;;
56720;SDS011;53183;47.412;18.884;2022-12-11T11:02:34;7.07;;;2.78;;
56720;SDS011;53183;47.412;18.884;2022-12-11T11:05:14;9.13;;;3.53;;
56720;SDS011;53183;47.412;18.884;2022-12-11T11:07:43;6.10;;;2.92;;
56720;SDS011;53183;47.412;18.884;2022-12-11T11:12:38;6.95;;;3.87;;
56720;SDS011;53183;47.412;18.884;2022-12-11T11:15:12;6.00;;;3.20;;
56720;SDS011;53183;47.412;18.884;2022-12-11T11:17:52;7.00;;;2.90;;
56720;SDS011;53183;47.412;18.884;2022-12-11T11:20:25;6.28;;;3.33;;
56720;SDS011;53183;47.412;18.884;2022-12-11T11:22:55;6.20;;;2.80;;
56720;SDS011;53183;47.412;18.884;2022-12-11T11:25:26;4.93;;;2.83;;
56720;SDS011;53183;47.412;18.884;2022-12-11T11:27:56;7.65;;;2.42;;
56720;SDS011;53183;47.412;18.884;2022-12-11T11:30:33;5.85;;;3.17;;
56720;SDS011;53183;47.412;18.884;2022-12-11T11:33:03;9.98;;;2.97;;
56720;SDS011;53183;47.412;18.884;2022-12-11T11:35:49;6.43;;;3.10;;
56720;SDS011;53183;47.412;18.884;2022-12-11T11:38:29;5.97;;;3.03;;
56720;SDS011;53183;47.412;18.884;2022-12-11T11:44:09;7.40;;;3.65;;
56720;SDS011;53183;47.412;18.884;2022-12-11T11:46:41;6.85;;;3.53;;
56720;SDS011;53183;47.412;18.884;2022-12-11T11:49:22;8.18;;;3.60;;
56720;SDS011;53183;47.412;18.884;2022-12-11T11:51:52;8.48;;;3.42;;
56720;SDS011;53183;47.412;18.884;2022-12-11T11:54:34;6.95;;;3.15;;
56720;SDS011;53183;47.412;18.884;2022-12-11T11:57:11;6.12;;;3.33;;
56720;SDS011;53183;47.412;18.884;2022-12-11T11:59:46;6.62;;;2.70;;
56720;SDS011;53183;47.412;18.884;2022-12-11T12:02:18;5.22;;;2.90;;
56720;SDS011;53183;47.412;18.884;2022-12-11T12:04:46;4.68;;;2.83;;
56720;SDS011;53183;47.412;18.884;2022-12-11T12:07:21;9.80;;;3.45;;
56720;SDS011;53183;47.412;18.884;2022-12-11T12:15:17;8.35;;;3.35;;
56720;SDS011;53183;47.412;18.884;2022-12-11T12:17:53;8.45;;;4.05;;
56720;SDS011;53183;47.412;18.884;2022-12-11T12:20:31;7.72;;;3.55;;
56720;SDS011;53183;47.412;18.884;2022-12-11T12:31:10;7.80;;;4.37;;
56720;SDS011;53183;47.412;18.884;2022-12-11T12:39:19;11.05;;;4.55;;
56720;SDS011;53183;47.412;18.884;2022-12-11T12:42:14;8.38;;;3.50;;
56720;SDS011;53183;47.412;18.884;2022-12-11T12:47:18;7.75;;;2.85;;
56720;SDS011;53183;47.412;18.884;2022-12-11T12:49:49;7.95;;;3.58;;
56720;SDS011;53183;47.412;18.884;2022-12-11T12:52:27;5.28;;;3.50;;
56720;SDS011;53183;47.412;18.884;2022-12-11T12:55:23;8.38;;;3.72;;
56720;SDS011;53183;47.412;18.884;2022-12-11T13:03:12;9.70;;;4.47;;
56720;SDS011;53183;47.412;18.884;2022-12-11T13:05:40;11.12;;;3.83;;
56720;SDS011;53183;47.412;18.884;2022-12-11T13:08:09;10.25;;;4.68;;
56720;SDS011;53183;47.412;18.884;2022-12-11T13:10:39;10.07;;;5.32;;
56720;SDS011;53183;47.412;18.884;2022-12-11T13:13:25;7.05;;;3.70;;
56720;SDS011;53183;47.412;18.884;2022-12-11T13:18:43;8.93;;;4.55;;
56720;SDS011;53183;47.412;18.884;2022-12-11T13:21:27;7.87;;;4.00;;
56720;SDS011;53183;47.412;18.884;2022-12-11T13:23:55;8.70;;;3.78;;
56720;SDS011;53183;47.412;18.884;2022-12-11T13:26:38;9.15;;;4.32;;
56720;SDS011;53183;47.412;18.884;2022-12-11T13:34:37;8.52;;;3.80;;
56720;SDS011;53183;47.412;18.884;2022-12-11T13:37:19;9.05;;;4.12;;
56720;SDS011;53183;47.412;18.884;2022-12-11T13:39:54;8.38;;;3.83;;
56720;SDS011;53183;47.412;18.884;2022-12-11T13:42:57;10.45;;;4.62;;
56720;SDS011;53183;47.412;18.884;2022-12-11T13:45:24;11.48;;;4.10;;
56720;SDS011;53183;47.412;18.884;2022-12-11T13:47:56;9.23;;;4.68;;
56720;SDS011;53183;47.412;18.884;2022-12-11T13:50:28;10.98;;;4.35;;
56720;SDS011;53183;47.412;18.884;2022-12-11T13:52:58;7.22;;;4.62;;
56720;SDS011;53183;47.412;18.884;2022-12-11T13:55:28;13.15;;;5.05;;
56720;SDS011;53183;47.412;18.884;2022-12-11T13:57:57;10.75;;;5.05;;
56720;SDS011;53183;47.412;18.884;2022-12-11T14:00:25;9.57;;;4.85;;
56720;SDS011;53183;47.412;18.884;2022-12-11T14:02:56;9.43;;;4.65;;
56720;SDS011;53183;47.412;18.884;2022-12-11T14:05:27;11.57;;;4.95;;
56720;SDS011;53183;47.412;18.884;2022-12-11T14:07:55;11.40;;;5.28;;
56720;SDS011;53183;47.412;18.884;2022-12-11T14:10:26;11.68;;;4.15;;
56720;SDS011;53183;47.412;18.884;2022-12-11T14:15:25;10.55;;;4.37;;
56720;SDS011;53183;47.412;18.884;2022-12-11T14:17:54;11.57;;;4.85;;
56720;SDS011;53183;47.412;18.884;2022-12-11T14:20:29;12.75;;;5.18;;
56720;SDS011;53183;47.412;18.884;2022-12-11T14:25:31;11.52;;;4.93;;
56720;SDS011;53183;47.412;18.884;2022-12-11T14:27:59;13.30;;;4.90;;
56720;SDS011;53183;47.412;18.884;2022-12-11T14:30:28;12.45;;;5.05;;
56720;SDS011;53183;47.412;18.884;2022-12-11T14:33:01;10.20;;;4.95;;
56720;SDS011;53183;47.412;18.884;2022-12-11T14:35:31;11.10;;;5.43;;
56720;SDS011;53183;47.412;18.884;2022-12-11T14:40:48;9.02;;;4.50;;
56720;SDS011;53183;47.412;18.884;2022-12-11T14:43:22;9.07;;;4.53;;
56720;SDS011;53183;47.412;18.884;2022-12-11T14:45:57;10.02;;;4.97;;
56720;SDS011;53183;47.412;18.884;2022-12-11T14:48:28;8.80;;;4.40;;
56720;SDS011;53183;47.412;18.884;2022-12-11T14:51:00;17.12;;;6.03;;
56720;SDS011;53183;47.412;18.884;2022-12-11T14:53:37;10.40;;;5.15;;
56720;SDS011;53183;47.412;18.884;2022-12-11T14:56:14;10.02;;;4.55;;
56720;SDS011;53183;47.412;18.884;2022-12-11T15:01:33;9.77;;;4.87;;
56720;SDS011;53183;47.412;18.884;2022-12-11T15:06:32;9.68;;;4.87;;
56720;SDS011;53183;47.412;18.884;2022-12-11T15:11:55;14.10;;;6.68;;
56720;SDS011;53183;47.412;18.884;2022-12-11T15:14:25;14.35;;;5.32;;
56720;SDS011;53183;47.412;18.884;2022-12-11T15:16:53;14.87;;;5.90;;
56720;SDS011;53183;47.412;18.884;2022-12-11T15:22:02;11.10;;;5.03;;
56720;SDS011;53183;47.412;18.884;2022-12-11T15:24:41;11.18;;;5.62;;
56720;SDS011;53183;47.412;18.884;2022-12-11T15:27:27;10.80;;;5.65;;
56720;SDS011;53183;47.412;18.884;2022-12-11T15:32:45;11.88;;;5.57;;
56720;SDS011;53183;47.412;18.884;2022-12-11T15:35:22;12.18;;;5.78;;
56720;SDS011;53183;47.412;18.884;2022-12-11T15:37:52;11.30;;;5.35;;
56720;SDS011;53183;47.412;18.884;2022-12-11T15:40:21;11.30;;;5.32;;
56720;SDS011;53183;47.412;18.884;2022-12-11T15:42:49;11.77;;;4.90;;
56720;SDS011;53183;47.412;18.884;2022-12-11T15:45:18;14.48;;;5.75;;
56720;SDS011;53183;47.412;18.884;2022-12-11T15:47:48;10.25;;;5.50;;
56720;SDS011;53183;47.412;18.884;2022-12-11T15:50:17;10.13;;;5.37;;
56720;SDS011;53183;47.412;18.884;2022-12-11T15:52:47;9.68;;;4.68;;
56720;SDS011;53183;47.412;18.884;2022-12-11T15:55:16;11.15;;;5.03;;
56720;SDS011;53183;47.412;18.884;2022-12-11T15:57:44;8.90;;;4.65;;
56720;SDS011;53183;47.412;18.884;2022-12-11T16:00:18;10.60;;;4.37;;
56720;SDS011;53183;47.412;18.884;2022-12-11T16:02:47;13.40;;;4.62;;
56720;SDS011;53183;47.412;18.884;2022-12-11T16:05:14;13.85;;;5.43;;
56720;SDS011;53183;47.412;18.884;2022-12-11T16:07:41;11.18;;;6.07;;
56720;SDS011;53183;47.412;18.884;2022-12-11T16:10:12;10.10;;;4.82;;
56720;SDS011;53183;47.412;18.884;2022-12-11T16:12:43;11.05;;;5.45;;
56720;SDS011;53183;47.412;18.884;2022-12-11T16:15:12;11.10;;;4.72;;
56720;SDS011;53183;47.412;18.884;2022-12-11T16:17:48;12.02;;;5.78;;
56720;SDS011;53183;47.412;18.884;2022-12-11T16:20:16;11.98;;;4.47;;
56720;SDS011;53183;47.412;18.884;2022-12-11T16:22:43;15.05;;;5.68;;
56720;SDS011;53183;47.412;18.884;2022-12-11T16:25:10;12.32;;;5.37;;
56720;SDS011;53183;47.412;18.884;2022-12-11T16:27:38;12.73;;;5.50;;